Beatty, Nevada Weather observations

Data are for observation ending at time listed.
 Day   Time    Ave.   Ave.  Ave.  Vector   Max.   Stn.    Total    Solar   Ave.  
  of    of     Air    Rel.  Wind   Wind    Wind   Baro.  Precip.   Rad.    Soil  
Year   Day     Temp.  Hum.  Speed  Dir.    Gust   Pres.                    Temp. 
2014   (PST)    F      %     mph   deg.    mph     mb.     in.     W/m2     F   
------------------------------------------------------------------------------
 260   18:20   88.7    24    5.3   175     13.2   893.8    0.00       0    87.0
 260   18:30   88.3    24    3.1   178      6.2   893.9    0.00       0    87.0
 260   18:40   88.1    24    3.5   173      9.9   894.0    0.00       0    87.0
 260   18:50   88.1    24    4.2   186     10.3   894.0    0.00       0    87.0
 260   19:00   88.2    24    6.3   173     12.9   894.1    0.00       0    87.0
 260   19:10   88.3    23    7.5   163     13.8   894.1    0.00       0    87.0
 260   19:20   88.2    23    7.5   164     14.9   894.2    0.00       0    87.0
 260   19:30   88.0    24    4.8   195      9.6   894.2    0.00       0    87.0
 260   19:40   87.8    24    6.6   161     17.2   894.2    0.00       0    87.0
 260   19:50   88.0    24    6.6   161     13.5   894.3    0.00       0    87.0
 260   20:00   87.9    24    7.3   162     16.3   894.3    0.00       0    87.0
 260   20:10   87.9    24    6.0   167     21.7   894.3    0.00       0    87.0
 260   20:20   87.2    24    4.5   183      9.4   894.3    0.00       0    87.0
 260   20:30   87.0    25    4.3   184      9.4   894.4    0.00       0    87.0
 260   20:40   86.7    25    4.9   195      9.1   894.4    0.00       0    87.0
 260   20:50   86.8    25    4.8   175     11.2   894.5    0.00       0    87.0
 260   21:00   86.5    25    4.7   175     13.9   894.5    0.00       0    86.9
 260   21:10   86.7    25    7.0   185     15.6   894.5    0.00       0    86.9
 260   21:20   86.8    25    6.3   169     12.1   894.6    0.00       0    86.9
 260   21:30   86.6    26    5.6   173     13.9   894.6    0.00       0    86.8
 260   21:40   86.5    26    6.5   176     11.7   894.6    0.00       0    86.8
 260   21:50   86.5    26    7.4   164     16.0   894.5    0.00       0    86.8
 260   22:00   86.3    26    6.0   170     11.9   894.5    0.00       0    86.8
 260   22:10   85.9    27    5.4   164     15.4   894.5    0.00       0    86.8
 260   22:20   86.0    28    8.1   169     16.5   894.5    0.00       0    86.7
 260   22:30   86.1    28    8.9   162     20.0   894.5    0.00       0    86.7
 260   22:40   85.6    28    5.1   196     13.1   894.6    0.00       0    86.7
 260   22:50   83.4    31    3.9   228     11.3   894.7    0.00       0    86.7
 260   23:00   82.7    32    3.7   199     14.6   894.7    0.00       0    86.7
 260   23:10   84.5    31    7.2   169     17.0   894.7    0.00       0    86.6
 260   23:20   85.2    30    9.7   161     17.2   894.7    0.00       0    86.6
 260   23:30   85.3    30    9.1   157     17.8   894.7    0.00       0    86.6
 260   23:40   85.2    30    7.1   163     14.3   894.7    0.00       0    86.5
 260   23:50   85.0    30    6.2   159     11.7   894.6    0.00       0    86.5
 261    0:00   84.9    30    6.8   156     12.5   894.6    0.00       0    86.5
 261    0:10   84.9    30    6.3   158     14.7   894.6    0.00       0    86.5
 261    0:20   84.5    31    3.4   135      8.8   894.5    0.00       0    86.5
 261    0:30   83.9    32    3.2   111      9.2   894.5    0.00       0    86.4
 261    0:40   82.7    34    2.8   342      7.7   894.6    0.00       0    86.4
 261    0:50   80.7    37    2.1    12      6.3   894.7    0.00       0    86.4
 261    1:00   81.4    35    3.5   202      8.3   894.7    0.00       0    86.4
 261    1:10   82.6    34    5.1   163     14.5   894.6    0.00       0    86.3
 261    1:20   82.7    34    5.3   176     10.0   894.5    0.00       0    86.3
 261    1:30   82.6    33    5.2   177      9.3   894.5    0.00       0    86.3
 261    1:40   82.3    34    4.5   186      9.4   894.5    0.00       0    86.3
 261    1:50   82.3    33    3.5   149      8.3   894.5    0.00       0    86.2
 261    2:00   81.9    35    2.7   188      9.9   894.5    0.00       0    86.2
 261    2:10   80.9    37    4.2   206      8.0   894.5    0.00       0    86.2
 261    2:20   80.6    38    5.2   199     12.1   894.4    0.00       0    86.2
 261    2:30   80.7    37    3.8   167      9.9   894.5    0.00       0    86.2
 261    2:40   80.7    37    5.0   184     10.6   894.4    0.00       0    86.1
 261    2:50   80.9    36    5.2   167     11.8   894.4    0.00       0    86.1
 261    3:00   79.9    38    1.7    31      5.6   894.3    0.00       0    86.1
 261    3:10   79.1    40    4.8     9      8.5   894.3    0.00       0    86.1
 261    3:20   78.6    41    3.0     3      9.1   894.3    0.00       0    86.0
 261    3:30   78.2    42    3.0   321      5.6   894.3    0.00       0    85.9
 261    3:40   77.3    43    2.2    14      4.9   894.3    0.00       0    85.9
 261    3:50   77.2    43    2.0   351      4.1   894.3    0.00       0    85.9
 261    4:00   76.7    44    1.5   344      4.2   894.3    0.00       0    85.9
 261    4:10   77.1    43    1.9   323      5.0   894.3    0.00       0    85.9
 261    4:20   77.0    44    2.4    11      5.7   894.3    0.00       0    85.8
 261    4:30   77.0    42    3.6   350      8.6   894.4    0.00       0    85.8
 261    4:40   76.9    42    1.4   325      4.0   894.4    0.00       0    85.8
 261    4:50   75.6    45    1.1    65      3.1   894.4    0.00       0    85.7
 261    5:00   75.0    46    2.1    74      4.0   894.4    0.00       0    85.7
 261    5:10   74.3    47    1.1    63      3.1   894.5    0.00       0    85.7
 261    5:20   74.3    47    2.9    34      6.7   894.6    0.00       0    85.7
 261    5:30   75.3    45    1.5    58      3.9   894.7    0.00       0    85.7
 261    5:40   74.7    47    1.4     7      3.3   894.8    0.00       3    85.6
 261    5:50   74.4    48    1.7    59      3.6   894.9    0.00       6    85.6
 261    6:00   73.7    49    1.6    73      4.2   894.9    0.00      11    85.6
 261    6:10   73.7    48    1.5   128      3.7   895.0    0.00      13    85.6
 261    6:20   74.3    48    1.4    71      4.2   895.0    0.00      17    85.5
 261    6:30   74.2    48    1.8    52      5.1   895.0    0.00      18    85.5
 261    6:40   74.3    47    1.6    65      4.3   895.0    0.00      24    85.4
 261    6:50   75.1    46    2.1    81      4.2   894.9    0.00      25    85.4
 261    7:00   76.6    43    1.7    73      3.5   894.9    0.00      27    85.4
 261    7:10   78.3    39    1.5    47      3.7   894.9    0.00      38    85.4
 261    7:20   79.2    35    3.8     5      5.6   894.9    0.00      62    85.3
 261    7:30   80.5    32    3.1   336      6.9   894.9    0.00      74    85.3
 261    7:40   81.1    30    1.3   354      4.3   894.9    0.00     115    85.2
 261    7:50   81.7    30    2.6   220      6.5   894.9    0.00     322    85.2
 261    8:00   82.0    28    4.4   214      9.1   895.0    0.00     350    85.1
 261    8:10   82.3    27    5.6   217      9.6   895.0    0.00     375    85.1
 261    8:20   82.7    27    4.0   216      8.4   895.0    0.00     400    85.1
 261    8:30   83.3    27    3.4   215      6.9   895.0    0.00     424    85.0
 261    8:40   84.1    26    3.3   192      7.3   895.0    0.00     448    85.0
 261    8:50   85.1    25    3.7   195      8.3   894.9    0.00     471    85.0
 261    9:00   84.5    24    6.0   212     10.2   894.8    0.00     494    84.9
 261    9:10   85.0    23    5.3   212      9.9   894.8    0.00     515    84.9
 261    9:20   86.0    22    4.8   192      9.6   894.7    0.00     534    85.0
 261    9:30   86.2    21    5.2   200     10.1   894.6    0.00     555    84.9
 261    9:40   87.1    19    5.8   194     10.9   894.6    0.00     575    84.9
 261    9:50   87.1    18    7.2   162     13.2   894.6    0.00     592    84.8
 261   10:00   87.0    18    6.2   162     12.6   894.5    0.00     607    84.8
 261   10:10   87.2    18    7.8   169     13.7   894.5    0.00     621    84.8
 261   10:20   87.3    18    7.3   179     13.7   894.4    0.00     630    84.8
 261   10:30   88.0    17    9.3   206     16.2   894.3    0.00     643    84.7
 261   10:40   88.3    16    8.3   216     14.5   894.2    0.00     655    84.7
 261   10:50   89.1    15    8.3   200     17.8   894.1    0.00     661    84.8
 261   11:00   89.3    15    6.9   179     15.6   894.0    0.00     668    84.7
 261   11:10   89.8    14    6.0   213     13.9   893.7    0.00     676    84.7
 261   11:20   90.4    13    5.9   186     12.1   893.5    0.00     683    84.8
 261   11:30   90.9    13    8.9   201     16.0   893.3    0.00     689    84.8
 261   11:40   91.0    12    9.4   205     16.9   893.4    0.00     691    84.8
 261   11:50   91.5    12    8.2   177     17.2   893.3    0.00     693    84.9
 261   12:00   92.1    12    8.4   195     16.1   893.1    0.00     693    85.0
 261   12:10   92.1    11   10.1   188     19.6   893.1    0.00     689    85.0
 261   12:20   91.5    11    9.6   174     19.4   893.0    0.00     683    85.0
 261   12:30   92.3    11    8.2   194     20.5   892.9    0.00     679    85.1
 261   12:40   92.2    10    9.7   189     17.4   892.9    0.00     671    85.2
 261   12:50   92.0     9    6.8   168     17.6   892.7    0.00     663    85.2
 261   13:00   92.2     8    9.3   181     20.0   892.6    0.00     654    85.3
 261   13:10   91.8     8    9.6   173     15.8   892.6    0.00     646    85.4
 261   13:20   92.3     7    9.0   187     15.8   892.5    0.00     634    85.4
 261   13:30   92.3     7    9.4   195     17.5   892.4    0.00     621    85.5
 261   13:40   92.4     7    8.4   181     18.8   892.3    0.00     585    85.6
 261   13:50   92.7     7    9.0   191     20.0   892.2    0.00     541    85.7
 261   14:00   92.5     8    9.5   222     17.3   892.1    0.00     571    85.7
 261   14:10   92.2     8    8.7   216     15.1   892.0    0.00     543    85.8
 261   14:20   92.4     8    9.3   220     15.9   891.8    0.00      48    85.9
 261   14:30   91.7     8    8.8   222     18.0   891.7    0.00     134    86.0
 261   14:40   91.9     8    9.6   211     15.9   891.7    0.00     439    86.0
 261   14:50   91.9     8    9.5   181     18.4   891.7    0.00     150    86.0
 261   15:00   91.7     9    9.2   174     20.0   891.7    0.00      46    86.1
 261   15:10   91.6     9    9.2   205     19.4   891.6    0.00      29    86.2
 261   15:20   91.8    10    9.0   171     15.9   891.6    0.00      27    86.2
 261   15:30   91.2    10    8.4   173     19.7   891.5    0.00      53    86.3
 261   15:40   91.1    10   11.3   181     22.7   891.5    0.00      46    86.4
 261   15:50   90.3    11   11.0   166     22.0   891.6    0.00      27    86.4
 261   16:00   90.6    11    9.0   168     17.7   891.6    0.00      23    86.5
 261   16:10   90.6    12    7.4   166     13.7   891.5    0.00      23    86.5
 261   16:20   90.7    12    9.1   172     17.8   891.5    0.00      24    86.6
 261   16:30   91.1    12    7.2   186     15.4   891.5    0.00      25    86.6
 261   16:40   91.0    12    7.0   165     14.5   891.5    0.00      25    86.7
 261   16:50   90.6    12    8.0   175     15.3   891.6    0.00      42    86.7
 261   17:00   90.0    13    8.3   163     15.6   891.7    0.00      67    86.7
 261   17:10   89.5    14    8.0   165     15.3   891.7    0.00      66    86.8
 261   17:20   88.6    14   10.9   160     18.1   891.8    0.00      59    86.8
 261   17:30   87.9    15    7.1   174     15.7   891.9    0.00      35    86.8
 261   17:40   87.2    16    6.6   161     14.0   892.0    0.00      11    86.8
 261   17:50   86.3    16    6.9   165     16.0   892.1    0.00       5    86.8
 261   18:00   86.0    17    7.2   164     15.6   892.2    0.00       2    86.8
 261   18:10   85.7    17    7.4   168     15.5   892.2    0.00       0    86.8

Return to Beatty, Nevada graphs page.


Western Regional Climate Center,wrcc@dri.edu